sensor_id;sensor_type;location;lat;lon;timestamp;P1;durP1;ratioP1;P2;durP2;ratioP2
52322;SDS011;38263;52.920;6.238;2022-11-15T00:01:28;30.75;;;19.48;;
52322;SDS011;38263;52.920;6.238;2022-11-15T00:03:53;30.48;;;19.67;;
52322;SDS011;38263;52.920;6.238;2022-11-15T00:06:19;30.98;;;17.90;;
52322;SDS011;38263;52.920;6.238;2022-11-15T00:08:44;28.92;;;17.83;;
52322;SDS011;38263;52.920;6.238;2022-11-15T00:11:10;30.67;;;18.55;;
52322;SDS011;38263;52.920;6.238;2022-11-15T00:13:37;28.95;;;17.35;;
52322;SDS011;38263;52.920;6.238;2022-11-15T00:16:03;27.80;;;15.52;;
52322;SDS011;38263;52.920;6.238;2022-11-15T00:18:29;29.48;;;17.90;;
52322;SDS011;38263;52.920;6.238;2022-11-15T00:20:55;28.17;;;17.25;;
52322;SDS011;38263;52.920;6.238;2022-11-15T00:23:21;25.58;;;16.92;;
52322;SDS011;38263;52.920;6.238;2022-11-15T00:25:47;31.42;;;17.38;;
52322;SDS011;38263;52.920;6.238;2022-11-15T00:28:19;25.75;;;15.32;;
52322;SDS011;38263;52.920;6.238;2022-11-15T00:30:45;28.52;;;17.02;;
52322;SDS011;38263;52.920;6.238;2022-11-15T00:33:10;28.75;;;17.60;;
52322;SDS011;38263;52.920;6.238;2022-11-15T00:35:36;29.52;;;18.13;;
52322;SDS011;38263;52.920;6.238;2022-11-15T00:38:02;32.70;;;19.75;;
52322;SDS011;38263;52.920;6.238;2022-11-15T00:40:28;29.63;;;18.65;;
52322;SDS011;38263;52.920;6.238;2022-11-15T00:42:53;31.35;;;20.50;;
52322;SDS011;38263;52.920;6.238;2022-11-15T00:45:19;28.98;;;18.80;;
52322;SDS011;38263;52.920;6.238;2022-11-15T00:47:45;31.75;;;18.65;;
52322;SDS011;38263;52.920;6.238;2022-11-15T00:50:11;34.10;;;20.38;;
52322;SDS011;38263;52.920;6.238;2022-11-15T00:52:37;30.00;;;19.50;;
52322;SDS011;38263;52.920;6.238;2022-11-15T00:55:03;34.20;;;21.15;;
52322;SDS011;38263;52.920;6.238;2022-11-15T00:57:28;31.92;;;19.80;;
52322;SDS011;38263;52.920;6.238;2022-11-15T00:59:54;35.20;;;19.27;;
52322;SDS011;38263;52.920;6.238;2022-11-15T01:02:19;36.45;;;19.92;;
52322;SDS011;38263;52.920;6.238;2022-11-15T01:04:45;35.67;;;19.17;;
52322;SDS011;38263;52.920;6.238;2022-11-15T01:07:11;31.73;;;19.98;;
52322;SDS011;38263;52.920;6.238;2022-11-15T01:09:36;31.27;;;19.70;;
52322;SDS011;38263;52.920;6.238;2022-11-15T01:12:02;29.35;;;18.75;;
52322;SDS011;38263;52.920;6.238;2022-11-15T01:14:28;34.97;;;20.50;;
52322;SDS011;38263;52.920;6.238;2022-11-15T01:16:53;31.95;;;18.85;;
52322;SDS011;38263;52.920;6.238;2022-11-15T01:19:19;36.05;;;21.02;;
52322;SDS011;38263;52.920;6.238;2022-11-15T01:21:44;33.20;;;19.90;;
52322;SDS011;38263;52.920;6.238;2022-11-15T01:24:11;30.98;;;18.75;;
52322;SDS011;38263;52.920;6.238;2022-11-15T01:26:38;33.67;;;19.65;;
52322;SDS011;38263;52.920;6.238;2022-11-15T01:29:03;33.05;;;19.17;;
52322;SDS011;38263;52.920;6.238;2022-11-15T01:31:29;35.45;;;18.42;;
52322;SDS011;38263;52.920;6.238;2022-11-15T01:33:54;31.27;;;18.67;;
52322;SDS011;38263;52.920;6.238;2022-11-15T01:36:20;33.72;;;17.50;;
52322;SDS011;38263;52.920;6.238;2022-11-15T01:38:47;32.22;;;18.02;;
52322;SDS011;38263;52.920;6.238;2022-11-15T01:41:19;30.95;;;17.58;;
52322;SDS011;38263;52.920;6.238;2022-11-15T01:43:47;31.92;;;17.35;;
52322;SDS011;38263;52.920;6.238;2022-11-15T01:46:24;29.80;;;17.48;;
52322;SDS011;38263;52.920;6.238;2022-11-15T01:48:51;35.70;;;18.65;;
52322;SDS011;38263;52.920;6.238;2022-11-15T01:51:20;31.23;;;16.83;;
52322;SDS011;38263;52.920;6.238;2022-11-15T01:53:49;31.13;;;17.70;;
52322;SDS011;38263;52.920;6.238;2022-11-15T01:56:23;34.13;;;18.83;;
52322;SDS011;38263;52.920;6.238;2022-11-15T01:58:52;32.30;;;18.17;;
52322;SDS011;38263;52.920;6.238;2022-11-15T02:01:20;37.88;;;19.48;;
52322;SDS011;38263;52.920;6.238;2022-11-15T02:06:22;34.28;;;18.70;;
52322;SDS011;38263;52.920;6.238;2022-11-15T02:08:49;35.60;;;19.05;;
52322;SDS011;38263;52.920;6.238;2022-11-15T02:11:15;37.05;;;18.70;;
52322;SDS011;38263;52.920;6.238;2022-11-15T02:13:41;37.90;;;19.88;;
52322;SDS011;38263;52.920;6.238;2022-11-15T02:18:34;35.38;;;19.90;;
52322;SDS011;38263;52.920;6.238;2022-11-15T02:21:04;39.05;;;19.77;;
52322;SDS011;38263;52.920;6.238;2022-11-15T02:29:42;40.67;;;19.95;;
52322;SDS011;38263;52.920;6.238;2022-11-15T02:32:40;38.80;;;19.85;;
52322;SDS011;38263;52.920;6.238;2022-11-15T02:35:16;39.00;;;19.05;;
52322;SDS011;38263;52.920;6.238;2022-11-15T02:38:04;40.85;;;19.80;;
52322;SDS011;38263;52.920;6.238;2022-11-15T02:40:43;43.08;;;20.33;;
52322;SDS011;38263;52.920;6.238;2022-11-15T02:43:12;43.22;;;20.98;;
52322;SDS011;38263;52.920;6.238;2022-11-15T02:46:02;40.85;;;21.70;;
52322;SDS011;38263;52.920;6.238;2022-11-15T02:48:34;45.00;;;21.58;;
52322;SDS011;38263;52.920;6.238;2022-11-15T02:51:00;40.40;;;19.25;;
52322;SDS011;38263;52.920;6.238;2022-11-15T02:53:27;45.75;;;20.00;;
52322;SDS011;38263;52.920;6.238;2022-11-15T02:55:53;38.38;;;19.02;;
52322;SDS011;38263;52.920;6.238;2022-11-15T03:01:08;44.42;;;21.98;;
52322;SDS011;38263;52.920;6.238;2022-11-15T03:09:02;48.03;;;23.45;;
52322;SDS011;38263;52.920;6.238;2022-11-15T03:11:36;51.58;;;23.35;;
52322;SDS011;38263;52.920;6.238;2022-11-15T03:16:50;51.00;;;21.65;;
52322;SDS011;38263;52.920;6.238;2022-11-15T03:19:44;53.63;;;21.95;;
52322;SDS011;38263;52.920;6.238;2022-11-15T03:22:14;45.78;;;21.83;;
52322;SDS011;38263;52.920;6.238;2022-11-15T03:24:41;51.85;;;22.95;;
52322;SDS011;38263;52.920;6.238;2022-11-15T03:27:10;49.50;;;22.88;;
52322;SDS011;38263;52.920;6.238;2022-11-15T03:29:41;56.45;;;23.67;;
52322;SDS011;38263;52.920;6.238;2022-11-15T03:32:17;46.58;;;23.45;;
52322;SDS011;38263;52.920;6.238;2022-11-15T03:35:05;49.20;;;22.25;;
52322;SDS011;38263;52.920;6.238;2022-11-15T03:37:39;53.55;;;24.00;;
52322;SDS011;38263;52.920;6.238;2022-11-15T03:42:48;50.47;;;22.67;;
52322;SDS011;38263;52.920;6.238;2022-11-15T03:45:28;52.88;;;23.63;;
52322;SDS011;38263;52.920;6.238;2022-11-15T03:47:59;58.42;;;24.55;;
52322;SDS011;38263;52.920;6.238;2022-11-15T03:50:30;50.97;;;23.27;;
52322;SDS011;38263;52.920;6.238;2022-11-15T03:52:56;63.10;;;27.05;;
52322;SDS011;38263;52.920;6.238;2022-11-15T03:55:23;62.90;;;28.67;;
52322;SDS011;38263;52.920;6.238;2022-11-15T03:57:49;63.45;;;26.42;;
52322;SDS011;38263;52.920;6.238;2022-11-15T04:00:16;74.13;;;27.80;;
52322;SDS011;38263;52.920;6.238;2022-11-15T04:02:42;63.85;;;26.55;;
52322;SDS011;38263;52.920;6.238;2022-11-15T04:05:07;55.72;;;25.50;;
52322;SDS011;38263;52.920;6.238;2022-11-15T04:07:33;67.50;;;30.10;;
52322;SDS011;38263;52.920;6.238;2022-11-15T04:09:59;70.63;;;28.27;;
52322;SDS011;38263;52.920;6.238;2022-11-15T04:12:28;61.40;;;26.80;;
52322;SDS011;38263;52.920;6.238;2022-11-15T04:14:58;71.63;;;29.65;;
52322;SDS011;38263;52.920;6.238;2022-11-15T04:17:36;75.97;;;28.95;;
52322;SDS011;38263;52.920;6.238;2022-11-15T04:20:16;76.95;;;28.25;;
52322;SDS011;38263;52.920;6.238;2022-11-15T04:23:12;67.40;;;25.90;;
52322;SDS011;38263;52.920;6.238;2022-11-15T04:25:59;73.60;;;28.35;;
52322;SDS011;38263;52.920;6.238;2022-11-15T04:28:26;73.38;;;29.70;;
52322;SDS011;38263;52.920;6.238;2022-11-15T04:30:52;81.75;;;32.90;;
52322;SDS011;38263;52.920;6.238;2022-11-15T04:33:17;78.18;;;30.38;;
52322;SDS011;38263;52.920;6.238;2022-11-15T04:35:43;89.50;;;32.38;;
52322;SDS011;38263;52.920;6.238;2022-11-15T04:40:54;87.68;;;31.90;;
52322;SDS011;38263;52.920;6.238;2022-11-15T04:43:20;85.68;;;34.17;;
52322;SDS011;38263;52.920;6.238;2022-11-15T04:45:45;99.60;;;35.13;;
52322;SDS011;38263;52.920;6.238;2022-11-15T04:48:11;101.45;;;37.05;;
52322;SDS011;38263;52.920;6.238;2022-11-15T04:50:36;100.88;;;35.72;;
52322;SDS011;38263;52.920;6.238;2022-11-15T04:53:02;107.93;;;39.05;;
52322;SDS011;38263;52.920;6.238;2022-11-15T04:55:27;105.60;;;40.20;;
52322;SDS011;38263;52.920;6.238;2022-11-15T04:57:57;107.30;;;40.38;;
52322;SDS011;38263;52.920;6.238;2022-11-15T05:00:24;112.43;;;41.22;;
52322;SDS011;38263;52.920;6.238;2022-11-15T05:02:50;119.47;;;41.72;;
52322;SDS011;38263;52.920;6.238;2022-11-15T05:05:34;112.90;;;41.83;;
52322;SDS011;38263;52.920;6.238;2022-11-15T05:08:00;120.50;;;42.42;;
52322;SDS011;38263;52.920;6.238;2022-11-15T05:10:26;108.00;;;40.75;;
52322;SDS011;38263;52.920;6.238;2022-11-15T05:12:51;113.53;;;41.95;;
52322;SDS011;38263;52.920;6.238;2022-11-15T05:15:17;113.20;;;41.15;;
52322;SDS011;38263;52.920;6.238;2022-11-15T05:17:42;117.10;;;41.17;;
52322;SDS011;38263;52.920;6.238;2022-11-15T05:20:08;119.40;;;42.85;;
52322;SDS011;38263;52.920;6.238;2022-11-15T05:22:34;128.52;;;42.17;;
52322;SDS011;38263;52.920;6.238;2022-11-15T05:24:59;118.10;;;42.15;;
52322;SDS011;38263;52.920;6.238;2022-11-15T05:27:25;117.53;;;44.13;;
52322;SDS011;38263;52.920;6.238;2022-11-15T05:29:51;116.15;;;42.58;;
52322;SDS011;38263;52.920;6.238;2022-11-15T05:32:16;126.88;;;44.65;;
52322;SDS011;38263;52.920;6.238;2022-11-15T05:34:42;117.15;;;44.05;;
52322;SDS011;38263;52.920;6.238;2022-11-15T05:37:08;116.68;;;44.90;;
52322;SDS011;38263;52.920;6.238;2022-11-15T05:39:34;111.35;;;43.83;;
52322;SDS011;38263;52.920;6.238;2022-11-15T05:42:01;121.13;;;43.13;;
52322;SDS011;38263;52.920;6.238;2022-11-15T05:44:32;115.55;;;42.33;;
52322;SDS011;38263;52.920;6.238;2022-11-15T05:46:59;130.27;;;46.45;;
52322;SDS011;38263;52.920;6.238;2022-11-15T05:49:26;113.93;;;44.95;;
52322;SDS011;38263;52.920;6.238;2022-11-15T05:51:55;116.15;;;43.03;;
52322;SDS011;38263;52.920;6.238;2022-11-15T05:54:22;123.18;;;45.28;;
52322;SDS011;38263;52.920;6.238;2022-11-15T05:56:49;108.07;;;43.97;;
52322;SDS011;38263;52.920;6.238;2022-11-15T05:59:15;105.97;;;43.28;;
52322;SDS011;38263;52.920;6.238;2022-11-15T06:01:41;108.97;;;42.22;;
52322;SDS011;38263;52.920;6.238;2022-11-15T06:04:07;113.43;;;40.92;;
52322;SDS011;38263;52.920;6.238;2022-11-15T06:06:33;103.32;;;40.03;;
52322;SDS011;38263;52.920;6.238;2022-11-15T06:08:58;112.38;;;43.50;;
52322;SDS011;38263;52.920;6.238;2022-11-15T06:11:24;113.80;;;43.42;;
52322;SDS011;38263;52.920;6.238;2022-11-15T06:13:49;100.93;;;40.50;;
52322;SDS011;38263;52.920;6.238;2022-11-15T06:16:15;101.03;;;42.17;;
52322;SDS011;38263;52.920;6.238;2022-11-15T06:18:40;104.93;;;40.25;;
52322;SDS011;38263;52.920;6.238;2022-11-15T06:21:06;98.15;;;39.90;;
52322;SDS011;38263;52.920;6.238;2022-11-15T06:23:32;104.32;;;39.05;;
52322;SDS011;38263;52.920;6.238;2022-11-15T06:25:59;100.10;;;38.55;;
52322;SDS011;38263;52.920;6.238;2022-11-15T06:28:28;95.22;;;39.40;;
52322;SDS011;38263;52.920;6.238;2022-11-15T06:30:55;97.43;;;38.35;;
52322;SDS011;38263;52.920;6.238;2022-11-15T06:33:21;98.32;;;39.53;;
52322;SDS011;38263;52.920;6.238;2022-11-15T06:35:47;90.90;;;39.78;;
52322;SDS011;38263;52.920;6.238;2022-11-15T06:38:13;95.82;;;39.30;;
52322;SDS011;38263;52.920;6.238;2022-11-15T06:40:38;88.75;;;38.30;;
52322;SDS011;38263;52.920;6.238;2022-11-15T06:43:04;82.00;;;35.58;;
52322;SDS011;38263;52.920;6.238;2022-11-15T06:45:31;92.07;;;37.72;;
52322;SDS011;38263;52.920;6.238;2022-11-15T06:47:57;82.63;;;36.10;;
52322;SDS011;38263;52.920;6.238;2022-11-15T06:50:23;82.72;;;37.97;;
52322;SDS011;38263;52.920;6.238;2022-11-15T06:52:48;81.18;;;35.85;;
52322;SDS011;38263;52.920;6.238;2022-11-15T06:55:14;78.85;;;36.88;;
52322;SDS011;38263;52.920;6.238;2022-11-15T06:57:46;83.45;;;36.13;;
52322;SDS011;38263;52.920;6.238;2022-11-15T07:00:13;82.30;;;35.95;;
52322;SDS011;38263;52.920;6.238;2022-11-15T07:02:39;77.35;;;35.80;;
52322;SDS011;38263;52.920;6.238;2022-11-15T07:05:04;75.85;;;35.40;;
52322;SDS011;38263;52.920;6.238;2022-11-15T07:07:30;72.85;;;34.97;;
52322;SDS011;38263;52.920;6.238;2022-11-15T07:09:56;72.05;;;34.35;;
52322;SDS011;38263;52.920;6.238;2022-11-15T07:12:21;78.63;;;33.72;;
52322;SDS011;38263;52.920;6.238;2022-11-15T07:14:47;71.63;;;34.33;;
52322;SDS011;38263;52.920;6.238;2022-11-15T07:17:12;74.38;;;32.92;;
52322;SDS011;38263;52.920;6.238;2022-11-15T07:19:38;74.93;;;34.85;;
52322;SDS011;38263;52.920;6.238;2022-11-15T07:22:04;76.15;;;34.25;;
52322;SDS011;38263;52.920;6.238;2022-11-15T07:24:30;72.65;;;34.58;;
52322;SDS011;38263;52.920;6.238;2022-11-15T07:26:55;64.47;;;31.48;;
52322;SDS011;38263;52.920;6.238;2022-11-15T07:29:21;65.18;;;31.90;;
52322;SDS011;38263;52.920;6.238;2022-11-15T07:31:46;69.65;;;34.15;;
52322;SDS011;38263;52.920;6.238;2022-11-15T07:34:12;69.40;;;31.95;;
52322;SDS011;38263;52.920;6.238;2022-11-15T07:36:37;66.22;;;31.88;;
52322;SDS011;38263;52.920;6.238;2022-11-15T07:39:03;60.22;;;32.13;;
52322;SDS011;38263;52.920;6.238;2022-11-15T07:41:29;69.07;;;32.42;;
52322;SDS011;38263;52.920;6.238;2022-11-15T07:43:54;61.78;;;30.73;;
52322;SDS011;38263;52.920;6.238;2022-11-15T07:46:20;65.35;;;32.65;;
52322;SDS011;38263;52.920;6.238;2022-11-15T07:48:46;62.50;;;29.75;;
52322;SDS011;38263;52.920;6.238;2022-11-15T07:51:15;64.20;;;30.75;;
52322;SDS011;38263;52.920;6.238;2022-11-15T07:53:42;60.67;;;29.90;;
52322;SDS011;38263;52.920;6.238;2022-11-15T07:56:08;58.70;;;30.98;;
52322;SDS011;38263;52.920;6.238;2022-11-15T07:58:34;62.22;;;31.40;;
52322;SDS011;38263;52.920;6.238;2022-11-15T08:01:04;63.03;;;31.35;;
52322;SDS011;38263;52.920;6.238;2022-11-15T08:03:30;57.05;;;31.20;;
52322;SDS011;38263;52.920;6.238;2022-11-15T08:05:56;58.58;;;30.60;;
52322;SDS011;38263;52.920;6.238;2022-11-15T08:08:22;55.67;;;30.20;;
52322;SDS011;38263;52.920;6.238;2022-11-15T08:10:48;53.53;;;28.75;;
52322;SDS011;38263;52.920;6.238;2022-11-15T08:13:14;58.75;;;32.15;;
52322;SDS011;38263;52.920;6.238;2022-11-15T08:15:39;57.53;;;29.15;;
52322;SDS011;38263;52.920;6.238;2022-11-15T08:18:08;55.53;;;29.98;;
52322;SDS011;38263;52.920;6.238;2022-11-15T08:20:36;51.10;;;28.67;;
52322;SDS011;38263;52.920;6.238;2022-11-15T08:23:02;50.70;;;28.65;;
52322;SDS011;38263;52.920;6.238;2022-11-15T08:25:29;65.93;;;31.48;;
52322;SDS011;38263;52.920;6.238;2022-11-15T08:27:57;59.55;;;31.02;;
52322;SDS011;38263;52.920;6.238;2022-11-15T08:30:24;50.40;;;28.02;;
52322;SDS011;38263;52.920;6.238;2022-11-15T08:32:51;51.22;;;27.58;;
52322;SDS011;38263;52.920;6.238;2022-11-15T08:35:17;52.33;;;28.65;;
52322;SDS011;38263;52.920;6.238;2022-11-15T08:37:43;55.65;;;27.63;;
52322;SDS011;38263;52.920;6.238;2022-11-15T08:40:10;52.35;;;28.15;;
52322;SDS011;38263;52.920;6.238;2022-11-15T08:42:35;51.92;;;25.83;;
52322;SDS011;38263;52.920;6.238;2022-11-15T08:45:02;43.30;;;26.42;;
52322;SDS011;38263;52.920;6.238;2022-11-15T08:47:28;50.38;;;26.90;;
52322;SDS011;38263;52.920;6.238;2022-11-15T08:49:54;43.50;;;26.85;;
52322;SDS011;38263;52.920;6.238;2022-11-15T08:52:19;49.83;;;27.15;;
52322;SDS011;38263;52.920;6.238;2022-11-15T08:54:45;49.08;;;28.15;;
52322;SDS011;38263;52.920;6.238;2022-11-15T08:57:11;43.03;;;26.17;;
52322;SDS011;38263;52.920;6.238;2022-11-15T08:59:37;44.42;;;24.98;;
52322;SDS011;38263;52.920;6.238;2022-11-15T09:02:03;38.28;;;24.33;;
52322;SDS011;38263;52.920;6.238;2022-11-15T09:04:29;49.35;;;26.58;;
52322;SDS011;38263;52.920;6.238;2022-11-15T09:06:55;41.78;;;25.15;;
52322;SDS011;38263;52.920;6.238;2022-11-15T09:09:21;45.28;;;25.85;;
52322;SDS011;38263;52.920;6.238;2022-11-15T09:11:47;49.38;;;27.35;;
52322;SDS011;38263;52.920;6.238;2022-11-15T09:14:13;44.53;;;25.23;;
52322;SDS011;38263;52.920;6.238;2022-11-15T09:16:39;44.63;;;27.08;;
52322;SDS011;38263;52.920;6.238;2022-11-15T09:19:05;39.65;;;25.73;;
52322;SDS011;38263;52.920;6.238;2022-11-15T09:21:30;42.58;;;23.80;;
52322;SDS011;38263;52.920;6.238;2022-11-15T09:23:56;45.63;;;25.77;;
52322;SDS011;38263;52.920;6.238;2022-11-15T09:26:22;45.20;;;25.02;;
52322;SDS011;38263;52.920;6.238;2022-11-15T09:28:48;39.13;;;25.40;;
52322;SDS011;38263;52.920;6.238;2022-11-15T09:31:14;47.28;;;24.73;;
52322;SDS011;38263;52.920;6.238;2022-11-15T09:33:40;41.65;;;26.52;;
52322;SDS011;38263;52.920;6.238;2022-11-15T09:36:08;43.40;;;25.50;;
52322;SDS011;38263;52.920;6.238;2022-11-15T09:38:35;42.38;;;25.95;;
52322;SDS011;38263;52.920;6.238;2022-11-15T09:49:21;37.22;;;22.52;;
52322;SDS011;38263;52.920;6.238;2022-11-15T09:51:51;33.70;;;22.83;;
52322;SDS011;38263;52.920;6.238;2022-11-15T09:57:17;37.33;;;22.00;;
52322;SDS011;38263;52.920;6.238;2022-11-15T10:05:27;34.78;;;19.08;;
52322;SDS011;38263;52.920;6.238;2022-11-15T10:07:57;34.38;;;22.10;;
52322;SDS011;38263;52.920;6.238;2022-11-15T10:13:28;31.03;;;20.23;;
52322;SDS011;38263;52.920;6.238;2022-11-15T10:21:17;27.92;;;18.48;;
52322;SDS011;38263;52.920;6.238;2022-11-15T10:23:55;29.38;;;18.73;;
52322;SDS011;38263;52.920;6.238;2022-11-15T10:26:21;29.30;;;19.92;;
52322;SDS011;38263;52.920;6.238;2022-11-15T10:28:48;28.63;;;17.08;;
52322;SDS011;38263;52.920;6.238;2022-11-15T10:31:21;35.40;;;19.05;;
52322;SDS011;38263;52.920;6.238;2022-11-15T10:33:49;26.48;;;17.83;;
52322;SDS011;38263;52.920;6.238;2022-11-15T10:36:16;29.13;;;17.95;;
52322;SDS011;38263;52.920;6.238;2022-11-15T10:41:19;23.65;;;16.50;;
52322;SDS011;38263;52.920;6.238;2022-11-15T10:46:32;27.30;;;16.58;;
52322;SDS011;38263;52.920;6.238;2022-11-15T10:49:18;25.83;;;17.45;;
52322;SDS011;38263;52.920;6.238;2022-11-15T10:51:46;24.52;;;16.63;;
52322;SDS011;38263;52.920;6.238;2022-11-15T10:54:13;25.23;;;16.63;;
52322;SDS011;38263;52.920;6.238;2022-11-15T10:56:48;23.42;;;15.80;;
52322;SDS011;38263;52.920;6.238;2022-11-15T10:59:18;21.67;;;16.08;;
52322;SDS011;38263;52.920;6.238;2022-11-15T11:01:54;18.67;;;14.15;;
52322;SDS011;38263;52.920;6.238;2022-11-15T11:04:20;16.77;;;12.60;;
52322;SDS011;38263;52.920;6.238;2022-11-15T11:06:47;17.25;;;12.40;;
52322;SDS011;38263;52.920;6.238;2022-11-15T11:09:33;15.75;;;11.70;;
52322;SDS011;38263;52.920;6.238;2022-11-15T11:12:00;20.65;;;11.48;;
52322;SDS011;38263;52.920;6.238;2022-11-15T11:14:29;18.25;;;11.30;;
52322;SDS011;38263;52.920;6.238;2022-11-15T11:17:00;17.13;;;11.55;;
52322;SDS011;38263;52.920;6.238;2022-11-15T11:24:36;14.30;;;8.85;;
52322;SDS011;38263;52.920;6.238;2022-11-15T11:30:02;13.00;;;8.23;;
52322;SDS011;38263;52.920;6.238;2022-11-15T11:35:09;12.55;;;8.27;;
52322;SDS011;38263;52.920;6.238;2022-11-15T11:40:28;12.02;;;6.20;;
52322;SDS011;38263;52.920;6.238;2022-11-15T11:43:45;8.70;;;5.97;;
52322;SDS011;38263;52.920;6.238;2022-11-15T11:46:04;12.30;;;6.75;;
52322;SDS011;38263;52.920;6.238;2022-11-15T11:49:09;11.20;;;6.22;;
52322;SDS011;38263;52.920;6.238;2022-11-15T11:54:40;11.30;;;5.85;;
52322;SDS011;38263;52.920;6.238;2022-11-15T11:57:17;8.90;;;5.97;;
52322;SDS011;38263;52.920;6.238;2022-11-15T12:00:19;8.40;;;6.05;;
52322;SDS011;38263;52.920;6.238;2022-11-15T12:05:37;13.50;;;7.13;;
52322;SDS011;38263;52.920;6.238;2022-11-15T12:11:00;7.35;;;4.95;;
52322;SDS011;38263;52.920;6.238;2022-11-15T12:13:41;11.57;;;5.40;;
52322;SDS011;38263;52.920;6.238;2022-11-15T12:16:16;8.98;;;4.75;;
52322;SDS011;38263;52.920;6.238;2022-11-15T12:18:47;5.72;;;4.22;;
52322;SDS011;38263;52.920;6.238;2022-11-15T12:24:06;7.13;;;3.90;;
52322;SDS011;38263;52.920;6.238;2022-11-15T12:26:41;7.10;;;4.05;;
52322;SDS011;38263;52.920;6.238;2022-11-15T12:29:16;8.35;;;4.38;;
52322;SDS011;38263;52.920;6.238;2022-11-15T12:31:44;11.02;;;4.50;;
52322;SDS011;38263;52.920;6.238;2022-11-15T12:36:47;5.70;;;3.65;;
52322;SDS011;38263;52.920;6.238;2022-11-15T12:39:14;8.57;;;3.83;;
52322;SDS011;38263;52.920;6.238;2022-11-15T12:41:42;4.18;;;3.08;;
52322;SDS011;38263;52.920;6.238;2022-11-15T12:57:35;6.75;;;2.97;;
52322;SDS011;38263;52.920;6.238;2022-11-15T12:59:53;10.30;;;3.22;;
52322;SDS011;38263;52.920;6.238;2022-11-15T13:02:23;4.93;;;3.10;;
52322;SDS011;38263;52.920;6.238;2022-11-15T13:22:45;3.30;;;2.40;;
52322;SDS011;38263;52.920;6.238;2022-11-15T13:25:25;5.30;;;2.35;;
52322;SDS011;38263;52.920;6.238;2022-11-15T13:28:29;5.03;;;2.30;;
52322;SDS011;38263;52.920;6.238;2022-11-15T13:30:51;5.00;;;2.60;;
52322;SDS011;38263;52.920;6.238;2022-11-15T13:33:20;5.70;;;2.10;;
52322;SDS011;38263;52.920;6.238;2022-11-15T13:35:48;4.05;;;2.78;;
52322;SDS011;38263;52.920;6.238;2022-11-15T13:38:25;3.90;;;2.45;;
52322;SDS011;38263;52.920;6.238;2022-11-15T13:40:55;4.70;;;2.55;;
52322;SDS011;38263;52.920;6.238;2022-11-15T13:48:33;4.65;;;2.42;;
52322;SDS011;38263;52.920;6.238;2022-11-15T13:50:59;2.90;;;2.22;;
52322;SDS011;38263;52.920;6.238;2022-11-15T13:53:27;2.53;;;1.65;;
52322;SDS011;38263;52.920;6.238;2022-11-15T13:55:55;4.25;;;2.28;;
52322;SDS011;38263;52.920;6.238;2022-11-15T13:58:23;6.07;;;2.00;;
52322;SDS011;38263;52.920;6.238;2022-11-15T14:00:48;4.18;;;1.63;;
52322;SDS011;38263;52.920;6.238;2022-11-15T14:03:28;3.10;;;1.88;;
52322;SDS011;38263;52.920;6.238;2022-11-15T14:06:20;5.07;;;1.60;;
52322;SDS011;38263;52.920;6.238;2022-11-15T14:11:35;3.97;;;1.90;;
52322;SDS011;38263;52.920;6.238;2022-11-15T14:16:37;3.05;;;1.73;;
52322;SDS011;38263;52.920;6.238;2022-11-15T14:19:05;2.90;;;1.60;;
52322;SDS011;38263;52.920;6.238;2022-11-15T14:21:31;4.20;;;1.40;;
52322;SDS011;38263;52.920;6.238;2022-11-15T14:24:16;3.75;;;1.45;;
52322;SDS011;38263;52.920;6.238;2022-11-15T14:26:44;3.30;;;1.70;;
52322;SDS011;38263;52.920;6.238;2022-11-15T14:29:26;2.42;;;1.10;;
52322;SDS011;38263;52.920;6.238;2022-11-15T14:31:53;3.05;;;1.70;;
52322;SDS011;38263;52.920;6.238;2022-11-15T14:34:31;4.85;;;2.13;;
52322;SDS011;38263;52.920;6.238;2022-11-15T14:36:57;4.47;;;1.55;;
52322;SDS011;38263;52.920;6.238;2022-11-15T14:39:22;4.95;;;1.75;;
52322;SDS011;38263;52.920;6.238;2022-11-15T14:41:50;2.67;;;1.58;;
52322;SDS011;38263;52.920;6.238;2022-11-15T14:44:15;4.95;;;1.45;;
52322;SDS011;38263;52.920;6.238;2022-11-15T14:46:43;2.90;;;1.42;;
52322;SDS011;38263;52.920;6.238;2022-11-15T14:49:09;6.25;;;2.03;;
52322;SDS011;38263;52.920;6.238;2022-11-15T14:51:34;3.65;;;1.35;;
52322;SDS011;38263;52.920;6.238;2022-11-15T14:54:00;2.38;;;1.30;;
52322;SDS011;38263;52.920;6.238;2022-11-15T14:56:26;1.52;;;1.23;;
52322;SDS011;38263;52.920;6.238;2022-11-15T14:58:51;2.45;;;1.88;;
52322;SDS011;38263;52.920;6.238;2022-11-15T15:01:19;2.08;;;1.30;;
52322;SDS011;38263;52.920;6.238;2022-11-15T15:03:48;2.20;;;1.27;;
52322;SDS011;38263;52.920;6.238;2022-11-15T15:06:13;4.63;;;1.20;;
52322;SDS011;38263;52.920;6.238;2022-11-15T15:08:39;4.22;;;1.60;;
52322;SDS011;38263;52.920;6.238;2022-11-15T15:11:18;3.85;;;1.52;;
52322;SDS011;38263;52.920;6.238;2022-11-15T15:13:49;3.78;;;1.40;;
52322;SDS011;38263;52.920;6.238;2022-11-15T15:16:15;5.35;;;1.15;;
52322;SDS011;38263;52.920;6.238;2022-11-15T15:18:40;3.65;;;1.40;;
52322;SDS011;38263;52.920;6.238;2022-11-15T15:21:15;4.20;;;1.48;;
52322;SDS011;38263;52.920;6.238;2022-11-15T15:23:44;2.38;;;1.40;;
52322;SDS011;38263;52.920;6.238;2022-11-15T15:26:10;2.78;;;1.48;;
52322;SDS011;38263;52.920;6.238;2022-11-15T15:28:36;3.67;;;1.65;;
52322;SDS011;38263;52.920;6.238;2022-11-15T15:31:03;3.10;;;1.88;;
52322;SDS011;38263;52.920;6.238;2022-11-15T15:33:29;2.55;;;1.77;;
52322;SDS011;38263;52.920;6.238;2022-11-15T15:35:54;3.17;;;1.70;;
52322;SDS011;38263;52.920;6.238;2022-11-15T15:38:20;5.47;;;2.60;;
52322;SDS011;38263;52.920;6.238;2022-11-15T15:40:46;3.80;;;2.47;;
52322;SDS011;38263;52.920;6.238;2022-11-15T15:43:12;3.97;;;2.63;;
52322;SDS011;38263;52.920;6.238;2022-11-15T15:45:38;4.50;;;2.53;;
52322;SDS011;38263;52.920;6.238;2022-11-15T15:48:05;6.20;;;2.80;;
52322;SDS011;38263;52.920;6.238;2022-11-15T15:50:34;3.38;;;2.90;;
52322;SDS011;38263;52.920;6.238;2022-11-15T15:53:00;6.53;;;3.90;;
52322;SDS011;38263;52.920;6.238;2022-11-15T15:55:27;5.55;;;3.25;;
52322;SDS011;38263;52.920;6.238;2022-11-15T15:57:53;8.48;;;3.70;;
52322;SDS011;38263;52.920;6.238;2022-11-15T16:00:20;8.77;;;3.83;;
52322;SDS011;38263;52.920;6.238;2022-11-15T16:02:48;6.40;;;3.83;;
52322;SDS011;38263;52.920;6.238;2022-11-15T16:05:13;7.78;;;4.28;;
52322;SDS011;38263;52.920;6.238;2022-11-15T16:07:39;7.25;;;4.32;;
52322;SDS011;38263;52.920;6.238;2022-11-15T16:12:42;5.28;;;3.80;;
52322;SDS011;38263;52.920;6.238;2022-11-15T16:15:08;5.43;;;3.92;;
52322;SDS011;38263;52.920;6.238;2022-11-15T16:17:34;4.90;;;3.42;;
52322;SDS011;38263;52.920;6.238;2022-11-15T16:20:04;8.43;;;4.35;;
52322;SDS011;38263;52.920;6.238;2022-11-15T16:22:31;9.27;;;4.15;;
52322;SDS011;38263;52.920;6.238;2022-11-15T16:24:56;6.15;;;3.97;;
52322;SDS011;38263;52.920;6.238;2022-11-15T16:27:22;5.20;;;3.05;;
52322;SDS011;38263;52.920;6.238;2022-11-15T16:29:48;4.93;;;3.00;;
52322;SDS011;38263;52.920;6.238;2022-11-15T16:32:14;7.07;;;3.30;;
52322;SDS011;38263;52.920;6.238;2022-11-15T16:34:40;4.20;;;3.22;;
52322;SDS011;38263;52.920;6.238;2022-11-15T16:37:11;7.07;;;2.92;;
52322;SDS011;38263;52.920;6.238;2022-11-15T16:39:46;5.13;;;2.78;;
52322;SDS011;38263;52.920;6.238;2022-11-15T16:42:12;3.92;;;2.63;;
52322;SDS011;38263;52.920;6.238;2022-11-15T16:44:37;4.47;;;2.47;;
52322;SDS011;38263;52.920;6.238;2022-11-15T16:47:03;5.80;;;3.10;;